Travis Air Force Base, CA (94535)

5:46 AM PDT on May 27, 2015 (GMT -0700)
Westgate (Ruby Drive) | | Change Station
CLOSE
Current Station
Personal Weather Station
Location: Vacaville, CA
Elevation: 105 ft
Nearby Weather Stations

Elev 105 ft 38.32 °N, 121.96 °W | Updated 5 minutes ago

Overcast
Overcast
52.9 °F
Feels Like 52.9 °F
N
10.4
Wind Variable Wind from West

Today
High -- | Low -- °F
--% Chance of Precip.
Yesterday
High -- | Low -- °F
Precip. -- in
5:48 AM 8:21 PM
Waxing Gibbous, 67% visible
Pressure 29.93 in
Visibility 10.0 miles
Clouds Overcast 1000 ft
Dew Point 52 °F
Humidity 98%
Rainfall 0.00 in
Snow Depth Not available.
UV 0 out of 12
Pollen 7.20 out of 12
Air Quality Not available.
Flu Activity Sporadic
METAR KSUU 271158Z AUTO 25021G27KT 10SM OVC010 12/10 A2992 RMK AO2A PK WND 25029/1126 CIG 008V010 SLP135 60001 70001 T01230102 10130 20121 53001 $

More Conditions Fewer Conditions

Pressure 29.93 in
Visibility 10.0 miles
Clouds Overcast 1000 ft
Dew Point 52 °F
Humidity 98%
Rainfall 0.00 in
Snow Depth Not available.
UV 0 out of 12
Pollen 7.20 out of 12
Air Quality Not available.
Flu Activity Sporadic
METAR KSUU 271158Z AUTO 25021G27KT 10SM OVC010 12/10 A2992 RMK AO2A PK WND 25029/1126 CIG 008V010 SLP135 60001 70001 T01230102 10130 20121 53001 $

More Conditions Fewer Conditions

10-Day Weather Forecast

Almanac

Astronomy

May. 27, 2015 Rise Set
Actual Time
Civil Twilight
Nautical Twilight
Astronomical Twilight
Moon
Length of Visible Light
Length of Day
Tomorrow will be .
, % of the Moon is Illuminated

Today's Extremes

State Highs State Lows

Community

WunderPhotos

Upload Photos

1,824,661 photos uploaded!

WunderBlogs® & News

Nearby

Air Quality

  Air Quality AQ Index Pollutant
Not available.

Snow Depth

Station Depth Elevation

Earthquake Activity

City Distance Mag. Time & Date
Minimum magnitude displayed is 2.5.

Coastal Water Temperatures

Place Temperature

Stations

Nearby Weather Stations

Station Location Temp. Windchill Dew Point Humidity Wind Precip. Elev Updated Type